createdAt,value
2019-02-02T00:00:28.838Z,1.4
2019-02-02T00:01:35.761Z,1.4
2019-02-02T00:02:42.954Z,1.4
2019-02-02T00:03:50.151Z,1.4
2019-02-02T00:04:57.352Z,1.4
2019-02-02T00:06:04.543Z,1.4
2019-02-02T00:07:11.736Z,1.4
2019-02-02T00:08:18.926Z,1.4
2019-02-02T00:09:25.859Z,1.4
2019-02-02T00:10:33.044Z,1.4
2019-02-02T00:11:40.235Z,1.4
2019-02-02T00:12:47.429Z,1.4
2019-02-02T00:13:54.622Z,1.4
2019-02-02T00:15:01.539Z,1.3
2019-02-02T00:16:08.735Z,1.3
2019-02-02T00:17:15.929Z,1.4
2019-02-02T00:18:23.116Z,1.3
2019-02-02T00:19:30.308Z,1.4
2019-02-02T00:20:37.503Z,1.4
2019-02-02T00:21:44.808Z,1.3
2019-02-02T00:22:52.002Z,1.4
2019-02-02T00:23:59.198Z,1.4
2019-02-02T00:25:06.389Z,1.4
2019-02-02T00:26:13.304Z,1.3
2019-02-02T00:27:20.494Z,1.4
2019-02-02T00:28:27.688Z,1.4
2019-02-02T00:29:34.881Z,1.3
2019-02-02T00:30:42.076Z,1.3
2019-02-02T00:31:49.267Z,1.3
2019-02-02T00:32:56.457Z,1.3
2019-02-02T00:34:03.650Z,1.3
2019-02-02T00:35:10.573Z,1.3
2019-02-02T00:36:17.766Z,1.2
2019-02-02T00:37:24.698Z,1.2
2019-02-02T00:38:31.890Z,1.2
2019-02-02T00:39:38.804Z,1.2
2019-02-02T00:40:45.994Z,1.3
2019-02-02T00:41:53.186Z,1.3
2019-02-02T00:43:00.381Z,1.3
2019-02-02T00:44:07.607Z,1.3
2019-02-02T00:45:14.524Z,1.2
2019-02-02T00:46:21.182Z,1.2
2019-02-02T00:47:28.429Z,1.3
2019-02-02T00:48:35.629Z,1.2
2019-02-02T00:49:42.809Z,1.2
2019-02-02T00:50:49.723Z,1.1
2019-02-02T00:51:56.914Z,1.1
2019-02-02T00:53:04.112Z,1.1
2019-02-02T00:54:11.307Z,1.1
2019-02-02T00:55:18.501Z,1.1
2019-02-02T00:56:25.694Z,1.1
2019-02-02T00:57:32.621Z,1.1
2019-02-02T00:58:39.807Z,1.1
2019-02-02T00:59:47.002Z,1.2
2019-02-02T01:00:54.193Z,1.2
2019-02-02T01:02:01.382Z,1.2
2019-02-02T01:03:08.569Z,1.2
2019-02-02T01:04:15.758Z,1.1
2019-02-02T01:05:22.957Z,1.1
2019-02-02T01:06:30.147Z,1.1
2019-02-02T01:07:37.347Z,1.1
2019-02-02T01:08:44.538Z,1
2019-02-02T01:09:51.730Z,1
2019-02-02T01:10:58.658Z,1
2019-02-02T01:12:05.578Z,1
2019-02-02T01:13:12.769Z,1
2019-02-02T01:14:20.055Z,1
2019-02-02T01:15:27.244Z,1
2019-02-02T01:16:34.158Z,1
2019-02-02T01:17:41.356Z,1
2019-02-02T01:18:48.545Z,1
2019-02-02T01:19:55.836Z,1
2019-02-02T01:21:03.027Z,1
2019-02-02T01:22:10.218Z,1
2019-02-02T01:23:17.136Z,1
2019-02-02T01:24:24.335Z,1
2019-02-02T01:25:31.530Z,1
2019-02-02T01:26:38.721Z,1
2019-02-02T01:27:45.913Z,1
2019-02-02T01:28:53.106Z,1.1
2019-02-02T01:30:00.337Z,1.1
2019-02-02T01:31:07.009Z,1
2019-02-02T01:32:14.585Z,1
2019-02-02T01:33:21.778Z,0.9
2019-02-02T01:34:28.972Z,0.9
2019-02-02T01:35:35.895Z,0.9
2019-02-02T01:36:42.818Z,0.9
2019-02-02T01:37:49.473Z,0.9
2019-02-02T01:38:56.669Z,0.9
2019-02-02T01:40:03.859Z,1
2019-02-02T01:41:11.054Z,1
2019-02-02T01:42:18.271Z,1
2019-02-02T01:43:24.903Z,1
2019-02-02T01:44:32.097Z,1
2019-02-02T01:45:39.291Z,1
2019-02-02T01:46:46.217Z,1
2019-02-02T01:47:53.131Z,1
2019-02-02T01:49:00.051Z,1
2019-02-02T01:50:07.241Z,1
2019-02-02T01:51:14.436Z,1
2019-02-02T01:52:21.372Z,1
2019-02-02T01:53:28.573Z,1
2019-02-02T01:54:38.915Z,1
2019-02-02T01:55:46.114Z,1
2019-02-02T01:56:53.305Z,1
2019-02-02T01:58:00.226Z,1
2019-02-02T01:59:07.185Z,1
2019-02-02T02:00:14.101Z,1
2019-02-02T02:01:21.322Z,0.9
2019-02-02T02:02:28.518Z,1
2019-02-02T02:03:35.427Z,1
2019-02-02T02:04:42.618Z,0.9
2019-02-02T02:05:49.810Z,0.9
2019-02-02T02:06:57.000Z,0.9
2019-02-02T02:08:04.194Z,0.9
2019-02-02T02:09:11.386Z,0.9
2019-02-02T02:10:18.576Z,0.9
2019-02-02T02:11:25.768Z,0.9
2019-02-02T02:12:32.959Z,0.9
2019-02-02T02:13:40.150Z,0.9
2019-02-02T02:14:47.352Z,0.9
2019-02-02T02:15:54.545Z,0.9
2019-02-02T02:17:01.737Z,0.9
2019-02-02T02:18:08.936Z,0.9
2019-02-02T02:19:16.117Z,0.9
2019-02-02T02:20:24.913Z,1
2019-02-02T02:21:32.107Z,1
2019-02-02T02:22:41.742Z,1
2019-02-02T02:23:48.939Z,1
2019-02-02T02:24:56.129Z,1
2019-02-02T02:26:03.056Z,1
2019-02-02T02:27:10.398Z,1
2019-02-02T02:28:28.539Z,1
2019-02-02T02:29:35.752Z,1
2019-02-02T02:30:42.943Z,1
2019-02-02T02:31:53.622Z,1
2019-02-02T02:33:00.544Z,1
2019-02-02T02:34:07.729Z,1
2019-02-02T02:35:14.920Z,1
2019-02-02T02:36:22.116Z,1
2019-02-02T02:37:29.309Z,1
2019-02-02T02:38:36.232Z,1
2019-02-02T02:39:42.873Z,1
2019-02-02T02:40:50.066Z,1
2019-02-02T02:41:57.260Z,1
2019-02-02T02:43:04.460Z,1.1
2019-02-02T02:44:11.650Z,1.1
2019-02-02T02:45:18.583Z,1.1
2019-02-02T02:46:25.501Z,1.1
2019-02-02T02:47:32.719Z,1.1
2019-02-02T02:48:39.921Z,1.1
2019-02-02T02:49:47.109Z,1.1
2019-02-02T02:50:53.748Z,1
2019-02-02T02:52:00.940Z,1.1
2019-02-02T02:53:08.129Z,1.1
2019-02-02T02:54:15.323Z,1.1
2019-02-02T02:55:22.515Z,1.1
2019-02-02T02:56:29.711Z,1.1
2019-02-02T02:57:36.896Z,1.1
2019-02-02T02:58:44.090Z,1.1
2019-02-02T02:59:51.277Z,1.1
2019-02-02T03:00:58.467Z,1.1
2019-02-02T03:02:05.392Z,1.1
2019-02-02T03:03:12.586Z,1.1
2019-02-02T03:04:19.778Z,1.1
2019-02-02T03:05:26.988Z,1.1
2019-02-02T03:06:33.952Z,1.1
2019-02-02T03:07:41.145Z,1.1
2019-02-02T03:08:48.337Z,1.1
2019-02-02T03:09:55.529Z,1.1
2019-02-02T03:11:02.717Z,1.1
2019-02-02T03:12:09.908Z,1.1
2019-02-02T03:13:17.105Z,1.1
2019-02-02T03:14:24.024Z,1.1
2019-02-02T03:15:31.217Z,1.1
2019-02-02T03:16:38.434Z,1.1
2019-02-02T03:17:45.636Z,1.1
2019-02-02T03:18:52.560Z,1.1
2019-02-02T03:19:59.757Z,1.1
2019-02-02T03:21:06.938Z,1.1
2019-02-02T03:22:13.870Z,1.1
2019-02-02T03:23:21.060Z,1.1
2019-02-02T03:24:28.244Z,1.1
2019-02-02T03:25:35.439Z,1.1
2019-02-02T03:26:42.637Z,1.1
2019-02-02T03:27:49.551Z,1.1
2019-02-02T03:28:56.741Z,1.1
2019-02-02T03:30:03.961Z,1.1
2019-02-02T03:31:11.153Z,1
2019-02-02T03:32:18.397Z,1
2019-02-02T03:33:25.591Z,1
2019-02-02T03:34:32.784Z,1
2019-02-02T03:35:39.976Z,1
2019-02-02T03:36:47.167Z,1
2019-02-02T03:37:53.815Z,1
2019-02-02T03:39:01.043Z,1
2019-02-02T03:40:07.704Z,1
2019-02-02T03:41:14.985Z,1
2019-02-02T03:42:21.907Z,1.1
2019-02-02T03:43:29.098Z,1.1
2019-02-02T03:44:36.012Z,1.1
2019-02-02T03:45:42.935Z,1.1
2019-02-02T03:46:50.127Z,1
2019-02-02T03:47:57.316Z,1.1
2019-02-02T03:49:04.503Z,1.1
2019-02-02T03:50:11.903Z,1.1
2019-02-02T03:51:19.090Z,1.1
2019-02-02T03:52:26.280Z,1.1
2019-02-02T03:53:33.470Z,1.1
2019-02-02T03:54:40.735Z,1.1
2019-02-02T03:55:47.936Z,1.1
2019-02-02T03:56:55.131Z,1.1
2019-02-02T03:58:02.324Z,1.1
2019-02-02T03:59:09.512Z,1.1
2019-02-02T04:00:16.451Z,1.1
2019-02-02T04:01:23.635Z,1.1
2019-02-02T04:02:30.553Z,1.1
2019-02-02T04:03:37.741Z,1.1
2019-02-02T04:04:44.936Z,1.1
2019-02-02T04:05:52.125Z,1.2
2019-02-02T04:06:59.320Z,1.2
2019-02-02T04:08:06.507Z,1.2
2019-02-02T04:09:13.425Z,1.2
2019-02-02T04:10:20.618Z,1.2
2019-02-02T04:11:27.537Z,1.1
2019-02-02T04:12:34.727Z,1.2
2019-02-02T04:13:41.917Z,1.2
2019-02-02T04:14:49.106Z,1.2
2019-02-02T04:15:56.300Z,1.2
2019-02-02T04:17:03.505Z,1.2
2019-02-02T04:18:10.685Z,1.2
2019-02-02T04:19:17.605Z,1.1
2019-02-02T04:20:24.521Z,1.1
2019-02-02T04:21:31.714Z,1.1
2019-02-02T04:22:39.032Z,1.1
2019-02-02T04:23:46.226Z,1.1
2019-02-02T04:24:53.415Z,1.2
2019-02-02T04:26:00.354Z,1.2
2019-02-02T04:27:07.531Z,1.2
2019-02-02T04:28:14.727Z,1.2
2019-02-02T04:29:21.921Z,1.2
2019-02-02T04:30:28.837Z,1.2
2019-02-02T04:31:36.029Z,1.2
2019-02-02T04:32:43.231Z,1.2
2019-02-02T04:33:50.417Z,1.2
2019-02-02T04:34:57.605Z,1.2
2019-02-02T04:36:04.528Z,1.2
2019-02-02T04:37:11.717Z,1.2
2019-02-02T04:38:18.635Z,1.2
2019-02-02T04:39:25.986Z,1.2
2019-02-02T04:40:33.174Z,1.2
2019-02-02T04:41:40.090Z,1.2
2019-02-02T04:42:47.346Z,1.2
2019-02-02T04:43:54.530Z,1.2
2019-02-02T04:45:01.722Z,1.2
2019-02-02T04:46:08.921Z,1.2
2019-02-02T04:47:17.318Z,1.2
2019-02-02T04:48:24.516Z,1.2
2019-02-02T04:49:31.709Z,1.2
2019-02-02T04:50:38.354Z,1.2
2019-02-02T04:51:45.544Z,1.2
2019-02-02T04:52:52.739Z,1.2
2019-02-02T04:53:59.923Z,1.3
2019-02-02T04:55:06.848Z,1.2
2019-02-02T04:56:13.763Z,1.2
2019-02-02T04:57:20.678Z,1.2
2019-02-02T04:58:27.871Z,1.2
2019-02-02T04:59:35.073Z,1.2
2019-02-02T05:00:42.264Z,1.3
2019-02-02T05:01:49.191Z,1.2
2019-02-02T05:02:56.116Z,1.2
2019-02-02T05:04:03.295Z,1.2
2019-02-02T05:05:10.485Z,1.2
2019-02-02T05:06:17.404Z,1.2
2019-02-02T05:07:24.598Z,1.2
2019-02-02T05:08:31.791Z,1.2
2019-02-02T05:09:38.987Z,1.2
2019-02-02T05:10:46.007Z,1.2
2019-02-02T05:11:53.201Z,1.2
2019-02-02T05:13:00.115Z,1.2
2019-02-02T05:14:07.307Z,1.2
2019-02-02T05:15:14.500Z,1.1
2019-02-02T05:16:21.420Z,1.1
2019-02-02T05:17:28.608Z,1.1
2019-02-02T05:18:35.797Z,1.1
2019-02-02T05:19:42.774Z,1.1
2019-02-02T05:20:49.969Z,1.1
2019-02-02T05:21:57.159Z,1.1
2019-02-02T05:23:04.055Z,1.1
2019-02-02T05:24:11.247Z,1.1
2019-02-02T05:25:18.432Z,1.1
2019-02-02T05:26:25.631Z,1.1
2019-02-02T05:27:32.820Z,1.1
2019-02-02T05:28:40.013Z,1.2
2019-02-02T05:29:47.201Z,1.2
2019-02-02T05:30:54.124Z,1.2
2019-02-02T05:32:01.429Z,1.2
2019-02-02T05:33:08.613Z,1.2
2019-02-02T05:34:15.535Z,1.2
2019-02-02T05:35:22.452Z,1.2
2019-02-02T05:36:29.641Z,1.2
2019-02-02T05:37:36.559Z,1.2
2019-02-02T05:38:43.749Z,1.2
2019-02-02T05:39:50.943Z,1.2
2019-02-02T05:40:57.860Z,1.2
2019-02-02T05:42:05.051Z,1.2
2019-02-02T05:43:12.294Z,1.2
2019-02-02T05:44:19.468Z,1.2
2019-02-02T05:45:26.658Z,1.2
2019-02-02T05:46:48.233Z,1.2
2019-02-02T05:47:55.434Z,1.2
2019-02-02T05:49:02.627Z,1.2
2019-02-02T05:50:09.817Z,1.2
2019-02-02T05:51:17.012Z,1.2
2019-02-02T05:52:23.959Z,1.2
2019-02-02T05:53:31.153Z,1.2
2019-02-02T05:54:38.346Z,1.2
2019-02-02T05:55:45.542Z,1.2
2019-02-02T05:56:52.735Z,1.2
2019-02-02T05:57:59.927Z,1.3
2019-02-02T05:59:06.854Z,1.3
2019-02-02T06:00:14.045Z,1.2
2019-02-02T06:01:20.964Z,1.2
2019-02-02T06:02:28.159Z,1.2
2019-02-02T06:03:35.351Z,1.2
2019-02-02T06:04:42.543Z,1.2
2019-02-02T06:05:49.743Z,1.2
2019-02-02T06:06:56.662Z,1.1
2019-02-02T06:08:03.909Z,1.2
2019-02-02T06:09:10.830Z,1.2
2019-02-02T06:10:18.043Z,1.2
2019-02-02T06:11:26.434Z,1.2
2019-02-02T06:12:33.625Z,1.2
2019-02-02T06:13:40.814Z,1.1
2019-02-02T06:14:47.733Z,1.1
2019-02-02T06:15:54.651Z,1.1
2019-02-02T06:17:01.842Z,1.1
2019-02-02T06:18:09.032Z,1.1
2019-02-02T06:19:16.229Z,1.1
2019-02-02T06:20:23.413Z,1.2
2019-02-02T06:21:30.423Z,1.2
2019-02-02T06:22:37.715Z,1.2
2019-02-02T06:23:44.906Z,1.1
2019-02-02T06:24:53.326Z,1.1
2019-02-02T06:26:00.612Z,1.2
2019-02-02T06:27:07.801Z,1.2
2019-02-02T06:28:14.995Z,1.1
2019-02-02T06:29:22.186Z,1.2
2019-02-02T06:30:29.377Z,1.2
2019-02-02T06:31:51.230Z,1.1
2019-02-02T06:32:58.435Z,1.2
2019-02-02T06:34:05.630Z,1.2
2019-02-02T06:35:12.829Z,1.2
2019-02-02T06:36:19.747Z,1.2
2019-02-02T06:37:26.948Z,1.2
2019-02-02T06:38:34.143Z,1.2
2019-02-02T06:39:41.331Z,1.2
2019-02-02T06:40:48.520Z,1.2
2019-02-02T06:41:55.715Z,1.2
2019-02-02T06:43:02.638Z,1.2
2019-02-02T06:44:09.832Z,1.2
2019-02-02T06:45:16.749Z,1.2
2019-02-02T06:46:23.952Z,1.2
2019-02-02T06:47:30.604Z,1.2
2019-02-02T06:48:37.519Z,1.2
2019-02-02T06:49:44.440Z,1.1
2019-02-02T06:50:51.356Z,1.2
2019-02-02T06:51:58.281Z,1.2
2019-02-02T06:53:05.195Z,1.2
2019-02-02T06:54:12.386Z,1.2
2019-02-02T06:55:19.582Z,1.2
2019-02-02T06:56:26.867Z,1.2
2019-02-02T06:57:34.064Z,1.1
2019-02-02T06:58:41.257Z,1.1
2019-02-02T06:59:48.450Z,1.2
2019-02-02T07:00:55.647Z,1.2
2019-02-02T07:02:02.853Z,1.2
2019-02-02T07:03:10.043Z,1.2
2019-02-02T07:04:17.239Z,1.2
2019-02-02T07:05:24.433Z,1.1
2019-02-02T07:06:31.359Z,1.2
2019-02-02T07:07:38.564Z,1.2
2019-02-02T07:08:45.766Z,1.2
2019-02-02T07:09:52.961Z,1.2
2019-02-02T07:10:59.887Z,1.2
2019-02-02T07:12:06.815Z,1.2
2019-02-02T07:13:14.100Z,1.2
2019-02-02T07:14:21.300Z,1.2
2019-02-02T07:15:28.229Z,1.2
2019-02-02T07:16:35.420Z,1.2
2019-02-02T07:17:42.618Z,1.2
2019-02-02T07:18:49.813Z,1.3
2019-02-02T07:19:57.015Z,1.2
2019-02-02T07:21:04.212Z,1.3
2019-02-02T07:22:11.518Z,1.3
2019-02-02T07:23:18.726Z,1.3
2019-02-02T07:24:25.930Z,1.3
2019-02-02T07:25:33.153Z,1.3
2019-02-02T07:26:40.079Z,1.3
2019-02-02T07:27:47.275Z,1.3
2019-02-02T07:28:54.473Z,1.3
2019-02-02T07:30:01.393Z,1.3
2019-02-02T07:31:11.356Z,1.3
2019-02-02T07:32:18.549Z,1.2
2019-02-02T07:33:25.744Z,1.3
2019-02-02T07:34:33.063Z,1.2
2019-02-02T07:35:39.987Z,1.2
2019-02-02T07:36:47.012Z,1.2
2019-02-02T07:37:54.204Z,1.3
2019-02-02T07:39:01.403Z,1.3
2019-02-02T07:40:08.321Z,1.3
2019-02-02T07:41:15.524Z,1.3
2019-02-02T07:42:22.445Z,1.3
2019-02-02T07:43:29.645Z,1.3
2019-02-02T07:44:36.843Z,1.3
2019-02-02T07:45:44.045Z,1.3
2019-02-02T07:46:51.269Z,1.3
2019-02-02T07:47:58.454Z,1.3
2019-02-02T07:49:05.645Z,1.3
2019-02-02T07:50:12.836Z,1.4
2019-02-02T07:51:20.033Z,1.4
2019-02-02T07:52:27.240Z,1.4
2019-02-02T07:53:34.436Z,1.4
2019-02-02T07:54:41.742Z,1.4
2019-02-02T07:55:48.943Z,1.4
2019-02-02T07:56:56.142Z,1.4
2019-02-02T07:58:03.349Z,1.4
2019-02-02T07:59:10.543Z,1.4
2019-02-02T08:00:17.742Z,1.4
2019-02-02T08:01:24.935Z,1.5
2019-02-02T08:02:32.132Z,1.5
2019-02-02T08:03:39.324Z,1.5
2019-02-02T08:04:46.520Z,1.4
2019-02-02T08:05:53.717Z,1.5
2019-02-02T08:07:00.637Z,1.5
2019-02-02T08:08:07.898Z,1.4
2019-02-02T08:09:15.089Z,1.4
2019-02-02T08:10:22.283Z,1.4
2019-02-02T08:11:29.479Z,1.5
2019-02-02T08:12:36.399Z,1.5
2019-02-02T08:13:43.594Z,1.5
2019-02-02T08:14:50.517Z,1.5
2019-02-02T08:15:57.436Z,1.5
2019-02-02T08:17:04.363Z,1.5
2019-02-02T08:18:11.557Z,1.5
2019-02-02T08:19:18.754Z,1.5
2019-02-02T08:20:25.956Z,1.5
2019-02-02T08:21:33.154Z,1.5
2019-02-02T08:22:40.354Z,1.5
2019-02-02T08:23:47.550Z,1.5
2019-02-02T08:24:54.743Z,1.5
2019-02-02T08:26:01.932Z,1.5
2019-02-02T08:27:09.131Z,1.6
2019-02-02T08:28:16.335Z,1.6
2019-02-02T08:29:23.535Z,1.6
2019-02-02T08:30:30.731Z,1.5
2019-02-02T08:31:37.649Z,1.5
2019-02-02T08:32:44.841Z,1.5
2019-02-02T08:33:51.762Z,1.6
2019-02-02T08:34:58.687Z,1.6
2019-02-02T08:36:05.876Z,1.6
2019-02-02T08:37:13.086Z,1.6
2019-02-02T08:38:20.287Z,1.6
2019-02-02T08:39:29.930Z,1.6
2019-02-02T08:40:37.125Z,1.6
2019-02-02T08:41:44.330Z,1.6
2019-02-02T08:42:51.510Z,1.6
2019-02-02T08:43:58.441Z,1.7
2019-02-02T08:45:05.640Z,1.7
2019-02-02T08:46:12.569Z,1.6
2019-02-02T08:47:19.768Z,1.7
2019-02-02T08:48:26.960Z,1.6
2019-02-02T08:49:34.155Z,1.6
2019-02-02T08:50:41.353Z,1.6
2019-02-02T08:51:48.547Z,1.7
2019-02-02T08:52:55.939Z,1.7
2019-02-02T08:54:04.282Z,1.7
2019-02-02T08:55:11.480Z,1.7
2019-02-02T08:56:19.086Z,1.7
2019-02-02T08:57:26.405Z,1.8
2019-02-02T08:58:33.791Z,1.8
2019-02-02T08:59:40.988Z,1.8
2019-02-02T09:00:48.071Z,1.7
2019-02-02T09:01:55.262Z,1.7
2019-02-02T09:03:02.181Z,1.8
2019-02-02T09:04:09.545Z,1.8
2019-02-02T09:05:16.967Z,1.8
2019-02-02T09:06:24.243Z,1.8
2019-02-02T09:07:31.523Z,1.9
2019-02-02T09:08:38.448Z,1.9
2019-02-02T09:09:45.380Z,1.9
2019-02-02T09:10:52.570Z,1.9
2019-02-02T09:11:59.766Z,1.9
2019-02-02T09:13:06.681Z,2
2019-02-02T09:14:13.874Z,1.9
2019-02-02T09:15:21.064Z,1.9
2019-02-02T09:16:28.258Z,2
2019-02-02T09:17:35.449Z,2
2019-02-02T09:18:42.640Z,1.9
2019-02-02T09:19:49.837Z,2
2019-02-02T09:20:57.031Z,1.9
2019-02-02T09:22:04.227Z,1.9
2019-02-02T09:23:11.421Z,1.9
2019-02-02T09:24:18.632Z,1.9
2019-02-02T09:25:25.853Z,1.9
2019-02-02T09:26:33.059Z,1.9
2019-02-02T09:27:40.257Z,1.9
2019-02-02T09:28:47.451Z,1.9
2019-02-02T09:29:54.651Z,2
2019-02-02T09:31:01.846Z,2
2019-02-02T09:32:09.034Z,2
2019-02-02T09:33:16.234Z,2
2019-02-02T09:34:23.436Z,2.1
2019-02-02T09:35:30.645Z,2.1
2019-02-02T09:36:37.566Z,2.1
2019-02-02T09:37:44.773Z,2.1
2019-02-02T09:38:51.966Z,2.2
2019-02-02T09:39:59.162Z,2.2
2019-02-02T09:41:06.592Z,2.2
2019-02-02T09:42:13.786Z,2.2
2019-02-02T09:43:20.702Z,2.2
2019-02-02T09:44:27.615Z,2.2
2019-02-02T09:45:34.810Z,2.2
2019-02-02T09:46:41.734Z,2.2
2019-02-02T09:47:48.998Z,2.2
2019-02-02T09:48:58.455Z,2.2
2019-02-02T09:50:05.376Z,2.2
2019-02-02T09:51:12.302Z,2.2
2019-02-02T09:52:19.499Z,2.2
2019-02-02T09:53:26.742Z,2.2
2019-02-02T09:54:33.937Z,2.2
2019-02-02T09:55:41.130Z,2.2
2019-02-02T09:56:48.323Z,2.2
2019-02-02T09:57:56.150Z,2.2
2019-02-02T09:59:03.344Z,2.2
2019-02-02T10:00:10.539Z,2.2
2019-02-02T10:01:28.314Z,2.2
2019-02-02T10:02:35.531Z,2.2
2019-02-02T10:03:42.722Z,2.2
2019-02-02T10:04:50.130Z,2.2
2019-02-02T10:05:57.325Z,2.2
2019-02-02T10:07:04.517Z,2.2
2019-02-02T10:08:11.714Z,2.2
2019-02-02T10:09:18.645Z,2.2
2019-02-02T10:10:25.842Z,2.2
2019-02-02T10:11:33.031Z,2.2
2019-02-02T10:12:40.224Z,2.2
2019-02-02T10:13:47.415Z,2.2
2019-02-02T10:14:54.611Z,2.2
2019-02-02T10:16:01.804Z,2.2
2019-02-02T10:17:08.997Z,2.3
2019-02-02T10:18:16.198Z,2.3
2019-02-02T10:19:23.391Z,2.3
2019-02-02T10:20:30.585Z,2.2
2019-02-02T10:21:37.787Z,2.2
2019-02-02T10:22:45.503Z,2.2
2019-02-02T10:23:52.699Z,2.2
2019-02-02T10:24:59.892Z,2.2
2019-02-02T10:26:07.083Z,2.2
2019-02-02T10:27:14.274Z,2.3
2019-02-02T10:28:21.565Z,2.2
2019-02-02T10:29:28.759Z,2.2
2019-02-02T10:30:35.952Z,2.2
2019-02-02T10:31:42.881Z,2.2
2019-02-02T10:32:50.073Z,2.1
2019-02-02T10:33:57.283Z,2.2
2019-02-02T10:35:04.479Z,2.2
2019-02-02T10:36:11.401Z,2.2
2019-02-02T10:37:18.594Z,2.3
2019-02-02T10:38:25.785Z,2.3
2019-02-02T10:39:32.980Z,2.3
2019-02-02T10:40:40.173Z,2.3
2019-02-02T10:41:47.097Z,2.3
2019-02-02T10:42:54.291Z,2.3
2019-02-02T10:44:01.482Z,2.3
2019-02-02T10:45:08.674Z,2.3
2019-02-02T10:46:15.867Z,2.3
2019-02-02T10:47:23.074Z,2.3
2019-02-02T10:48:30.003Z,2.3
2019-02-02T10:49:37.197Z,2.3
2019-02-02T10:50:44.472Z,2.3
2019-02-02T10:51:51.661Z,2.3
2019-02-02T10:52:58.864Z,2.3
2019-02-02T10:54:06.288Z,2.3
2019-02-02T10:55:13.212Z,2.3
2019-02-02T10:56:20.131Z,2.3
2019-02-02T10:57:27.323Z,2.3
2019-02-02T10:58:34.629Z,2.4
2019-02-02T10:59:41.827Z,2.4
2019-02-02T11:00:49.016Z,2.5
2019-02-02T11:01:55.941Z,2.5
2019-02-02T11:03:03.137Z,2.5
2019-02-02T11:04:10.351Z,2.6
2019-02-02T11:05:17.982Z,2.6
2019-02-02T11:06:25.295Z,2.6
2019-02-02T11:07:32.385Z,2.6
2019-02-02T11:08:39.745Z,2.6
2019-02-02T11:09:47.048Z,2.6
2019-02-02T11:10:54.537Z,2.6
2019-02-02T11:12:01.907Z,2.6
2019-02-02T11:13:09.162Z,2.6
2019-02-02T11:14:16.707Z,2.7
2019-02-02T11:15:24.297Z,2.7
2019-02-02T11:16:31.496Z,2.6
2019-02-02T11:17:39.280Z,2.6
2019-02-02T11:18:46.690Z,2.6
2019-02-02T11:19:53.903Z,2.6
2019-02-02T11:21:01.538Z,2.6
2019-02-02T11:22:08.903Z,2.6
2019-02-02T11:23:16.385Z,2.6
2019-02-02T11:24:23.769Z,2.6
2019-02-02T11:25:31.249Z,2.5
2019-02-02T11:26:38.873Z,2.6
2019-02-02T11:27:46.467Z,2.6
2019-02-02T11:28:53.914Z,2.6
2019-02-02T11:30:01.425Z,2.6
2019-02-02T11:31:08.737Z,2.6
2019-02-02T11:32:15.662Z,2.6
2019-02-02T11:33:22.863Z,2.6
2019-02-02T11:34:30.064Z,2.6
2019-02-02T11:35:37.265Z,2.6
2019-02-02T11:36:44.479Z,2.7
2019-02-02T11:37:51.672Z,2.7
2019-02-02T11:39:00.182Z,2.7
2019-02-02T11:40:07.112Z,2.8
2019-02-02T11:41:14.033Z,2.8
2019-02-02T11:42:21.229Z,2.8
2019-02-02T11:43:27.885Z,2.8
2019-02-02T11:44:34.806Z,2.9
2019-02-02T11:45:41.728Z,2.9
2019-02-02T11:46:48.926Z,2.9
2019-02-02T11:47:56.131Z,3
2019-02-02T11:49:03.326Z,3
2019-02-02T11:50:09.978Z,2.9
2019-02-02T11:51:17.178Z,2.9
2019-02-02T11:52:24.440Z,2.9
2019-02-02T11:53:31.632Z,3
2019-02-02T11:54:38.833Z,3
2019-02-02T11:55:46.018Z,3
2019-02-02T11:56:53.209Z,3
2019-02-02T11:58:00.408Z,3
2019-02-02T11:59:07.609Z,3
2019-02-02T12:00:16.938Z,2.9
2019-02-02T12:01:24.134Z,2.9
2019-02-02T12:02:31.329Z,2.8
2019-02-02T12:03:38.526Z,2.8
2019-02-02T12:04:45.453Z,2.9
2019-02-02T12:05:52.649Z,2.9
2019-02-02T12:06:59.841Z,2.9
2019-02-02T12:08:07.064Z,2.8
2019-02-02T12:09:14.258Z,2.8
2019-02-02T12:10:21.458Z,2.8
2019-02-02T12:11:28.651Z,2.8
2019-02-02T12:12:35.852Z,2.8
2019-02-02T12:13:43.049Z,2.9
2019-02-02T12:14:50.245Z,2.9
2019-02-02T12:15:57.441Z,3
2019-02-02T12:17:04.374Z,3
2019-02-02T12:18:12.497Z,2.9
2019-02-02T12:19:19.693Z,2.9
2019-02-02T12:20:26.892Z,2.9
2019-02-02T12:21:34.100Z,2.9
2019-02-02T12:22:41.033Z,2.9
2019-02-02T12:23:48.227Z,2.9
2019-02-02T12:24:55.429Z,3
2019-02-02T12:26:02.353Z,3
2019-02-02T12:27:09.318Z,3.1
2019-02-02T12:28:16.515Z,3.1
2019-02-02T12:29:23.707Z,3.1
2019-02-02T12:30:30.909Z,3.1
2019-02-02T12:31:38.136Z,3.1
2019-02-02T12:32:45.066Z,3.1
2019-02-02T12:33:51.999Z,3.1
2019-02-02T12:34:59.190Z,3.1
2019-02-02T12:36:06.117Z,3
2019-02-02T12:37:13.307Z,3
2019-02-02T12:38:20.290Z,3
2019-02-02T12:39:27.497Z,2.9
2019-02-02T12:40:34.692Z,2.9
2019-02-02T12:41:41.888Z,3
2019-02-02T23:00:06.423Z,2
2019-02-02T23:01:13.369Z,1.9
2019-02-02T23:02:20.559Z,2
2019-02-02T23:03:27.750Z,2
2019-02-02T23:04:34.941Z,2
2019-02-02T23:05:42.137Z,2
2019-02-02T23:06:49.330Z,2
2019-02-02T23:07:56.249Z,2
2019-02-02T23:09:02.896Z,2
2019-02-02T23:10:09.829Z,2
2019-02-02T23:11:17.021Z,2
2019-02-02T23:12:24.215Z,2
2019-02-02T23:13:31.408Z,2
2019-02-02T23:14:41.300Z,2
2019-02-02T23:15:48.492Z,1.9
2019-02-02T23:16:55.703Z,1.9
2019-02-02T23:18:02.908Z,2
2019-02-02T23:19:09.548Z,1.9
2019-02-02T23:20:16.743Z,2
2019-02-02T23:21:23.932Z,2
2019-02-02T23:22:31.123Z,2
2019-02-02T23:23:38.314Z,2
2019-02-02T23:24:45.505Z,2
2019-02-02T23:25:52.701Z,2
2019-02-02T23:26:59.349Z,2
2019-02-02T23:28:06.542Z,2
2019-02-02T23:29:13.736Z,1.9
2019-02-02T23:30:20.927Z,1.9
2019-02-02T23:31:28.117Z,1.9
2019-02-02T23:32:35.313Z,1.9
2019-02-02T23:33:42.506Z,1.9
2019-02-02T23:34:49.419Z,1.9
2019-02-02T23:35:56.611Z,1.9
2019-02-02T23:37:03.801Z,1.9
2019-02-02T23:38:11.001Z,1.9
2019-02-02T23:39:18.192Z,1.9
2019-02-02T23:40:25.111Z,1.9
2019-02-02T23:41:32.304Z,1.9
2019-02-02T23:42:39.499Z,1.9
2019-02-02T23:43:46.939Z,1.9
2019-02-02T23:44:54.317Z,2
2019-02-02T23:46:01.715Z,1.9
2019-02-02T23:47:09.817Z,2
2019-02-02T23:48:17.782Z,1.9
2019-02-02T23:49:26.040Z,2
2019-02-02T23:50:34.275Z,2
2019-02-02T23:51:42.235Z,2
2019-02-02T23:52:50.235Z,2
2019-02-02T23:53:58.476Z,2
2019-02-02T23:55:06.773Z,2
2019-02-02T23:56:14.778Z,2
2019-02-02T23:57:22.877Z,2
2019-02-02T23:58:30.855Z,2
2019-02-02T23:59:39.161Z,2
